Terminal Aerodrome Forecast
Issued by NWS

Home | Current Version | Previous Version | Text Only | Print | Product List | Glossary Off
Versions: 1 2 3 4 5 6 7 8 9 10 11 12 13 14 15 16 17 18 19 20

000
FTUS43 KOAX 250520
TAFCDR
TAF
KCDR 250520Z 2506/2606 25007KT P6SM BKN060
     FM251700 29018G28KT P6SM SCT050 BKN100
     FM260200 30015KT P6SM VCSH SCT020 OVC050=

USA.gov is the U.S. government's official web portal to all federal, state and local government web resources and services.